sensor_id;sensor_type;location;lat;lon;timestamp;P1;durP1;ratioP1;P2;durP2;ratioP2
33844;SDS011;20145;43.118;25.694;2022-07-29T00:00:06;10.05;;;8.13;;
33844;SDS011;20145;43.118;25.694;2022-07-29T00:02:33;9.15;;;7.50;;
33844;SDS011;20145;43.118;25.694;2022-07-29T00:04:59;9.90;;;8.20;;
33844;SDS011;20145;43.118;25.694;2022-07-29T00:07:25;9.52;;;8.13;;
33844;SDS011;20145;43.118;25.694;2022-07-29T00:09:50;9.45;;;7.90;;
33844;SDS011;20145;43.118;25.694;2022-07-29T00:12:16;7.97;;;7.28;;
33844;SDS011;20145;43.118;25.694;2022-07-29T00:14:42;8.82;;;7.97;;
33844;SDS011;20145;43.118;25.694;2022-07-29T00:17:08;8.65;;;7.85;;
33844;SDS011;20145;43.118;25.694;2022-07-29T00:19:33;10.27;;;8.05;;
33844;SDS011;20145;43.118;25.694;2022-07-29T00:21:59;9.95;;;7.85;;
33844;SDS011;20145;43.118;25.694;2022-07-29T00:24:26;11.27;;;8.35;;
33844;SDS011;20145;43.118;25.694;2022-07-29T00:26:51;9.30;;;8.50;;
33844;SDS011;20145;43.118;25.694;2022-07-29T00:29:17;9.02;;;8.20;;
33844;SDS011;20145;43.118;25.694;2022-07-29T00:31:42;8.85;;;7.90;;
33844;SDS011;20145;43.118;25.694;2022-07-29T00:34:08;7.95;;;7.28;;
33844;SDS011;20145;43.118;25.694;2022-07-29T00:36:53;10.18;;;7.40;;
33844;SDS011;20145;43.118;25.694;2022-07-29T00:39:19;7.80;;;7.03;;
33844;SDS011;20145;43.118;25.694;2022-07-29T00:41:45;8.93;;;7.05;;
33844;SDS011;20145;43.118;25.694;2022-07-29T00:44:10;11.05;;;7.15;;
33844;SDS011;20145;43.118;25.694;2022-07-29T00:46:36;8.10;;;6.97;;
33844;SDS011;20145;43.118;25.694;2022-07-29T00:49:01;9.00;;;6.70;;
33844;SDS011;20145;43.118;25.694;2022-07-29T00:51:27;9.15;;;7.00;;
33844;SDS011;20145;43.118;25.694;2022-07-29T00:53:53;13.05;;;7.60;;
33844;SDS011;20145;43.118;25.694;2022-07-29T00:56:18;8.68;;;6.68;;
33844;SDS011;20145;43.118;25.694;2022-07-29T00:58:45;7.63;;;6.63;;
33844;SDS011;20145;43.118;25.694;2022-07-29T01:01:13;8.13;;;6.43;;
33844;SDS011;20145;43.118;25.694;2022-07-29T01:03:38;7.28;;;6.47;;
33844;SDS011;20145;43.118;25.694;2022-07-29T01:06:04;10.55;;;5.93;;
33844;SDS011;20145;43.118;25.694;2022-07-29T01:08:30;7.75;;;6.95;;
33844;SDS011;20145;43.118;25.694;2022-07-29T01:10:58;9.07;;;6.93;;
33844;SDS011;20145;43.118;25.694;2022-07-29T01:13:25;8.48;;;6.95;;
33844;SDS011;20145;43.118;25.694;2022-07-29T01:15:58;9.85;;;6.97;;
33844;SDS011;20145;43.118;25.694;2022-07-29T01:18:32;7.70;;;7.00;;
33844;SDS011;20145;43.118;25.694;2022-07-29T01:28:49;6.93;;;6.32;;
33844;SDS011;20145;43.118;25.694;2022-07-29T01:31:42;7.03;;;6.03;;
33844;SDS011;20145;43.118;25.694;2022-07-29T01:37:28;14.27;;;6.13;;
33844;SDS011;20145;43.118;25.694;2022-07-29T01:40:24;9.25;;;5.93;;
33844;SDS011;20145;43.118;25.694;2022-07-29T01:42:55;6.43;;;5.50;;
33844;SDS011;20145;43.118;25.694;2022-07-29T01:45:26;7.32;;;5.82;;
33844;SDS011;20145;43.118;25.694;2022-07-29T01:48:00;7.32;;;6.07;;
33844;SDS011;20145;43.118;25.694;2022-07-29T01:50:33;6.68;;;6.07;;
33844;SDS011;20145;43.118;25.694;2022-07-29T01:53:04;9.13;;;6.38;;
33844;SDS011;20145;43.118;25.694;2022-07-29T01:55:34;11.17;;;7.33;;
33844;SDS011;20145;43.118;25.694;2022-07-29T01:58:04;7.10;;;6.40;;
33844;SDS011;20145;43.118;25.694;2022-07-29T02:00:31;7.25;;;6.50;;
33844;SDS011;20145;43.118;25.694;2022-07-29T02:02:58;7.32;;;6.53;;
33844;SDS011;20145;43.118;25.694;2022-07-29T02:05:28;9.70;;;5.95;;
33844;SDS011;20145;43.118;25.694;2022-07-29T02:07:56;9.90;;;5.65;;
33844;SDS011;20145;43.118;25.694;2022-07-29T02:10:25;6.18;;;4.90;;
33844;SDS011;20145;43.118;25.694;2022-07-29T02:12:54;7.68;;;5.15;;
33844;SDS011;20145;43.118;25.694;2022-07-29T02:15:22;8.77;;;5.10;;
33844;SDS011;20145;43.118;25.694;2022-07-29T02:17:51;6.35;;;4.80;;
33844;SDS011;20145;43.118;25.694;2022-07-29T02:20:22;7.88;;;5.25;;
33844;SDS011;20145;43.118;25.694;2022-07-29T02:22:50;8.98;;;5.00;;
33844;SDS011;20145;43.118;25.694;2022-07-29T02:25:17;5.25;;;4.00;;
33844;SDS011;20145;43.118;25.694;2022-07-29T02:27:43;5.35;;;4.90;;
33844;SDS011;20145;43.118;25.694;2022-07-29T02:30:10;4.78;;;4.38;;
33844;SDS011;20145;43.118;25.694;2022-07-29T02:32:37;5.63;;;4.28;;
33844;SDS011;20145;43.118;25.694;2022-07-29T02:35:06;7.32;;;4.45;;
33844;SDS011;20145;43.118;25.694;2022-07-29T02:37:33;7.32;;;4.85;;
33844;SDS011;20145;43.118;25.694;2022-07-29T02:39:59;7.10;;;4.70;;
33844;SDS011;20145;43.118;25.694;2022-07-29T02:42:26;5.63;;;5.00;;
33844;SDS011;20145;43.118;25.694;2022-07-29T02:44:53;6.68;;;5.10;;
33844;SDS011;20145;43.118;25.694;2022-07-29T02:50:32;7.95;;;5.78;;
33844;SDS011;20145;43.118;25.694;2022-07-29T02:53:05;7.05;;;6.35;;
33844;SDS011;20145;43.118;25.694;2022-07-29T02:55:37;6.60;;;5.90;;
33844;SDS011;20145;43.118;25.694;2022-07-29T03:00:46;6.53;;;4.97;;
33844;SDS011;20145;43.118;25.694;2022-07-29T03:03:13;7.30;;;5.22;;
33844;SDS011;20145;43.118;25.694;2022-07-29T03:05:41;9.82;;;4.50;;
33844;SDS011;20145;43.118;25.694;2022-07-29T03:08:09;5.60;;;5.07;;
33844;SDS011;20145;43.118;25.694;2022-07-29T03:10:36;7.38;;;5.45;;
33844;SDS011;20145;43.118;25.694;2022-07-29T03:13:04;6.90;;;5.43;;
33844;SDS011;20145;43.118;25.694;2022-07-29T03:15:30;6.22;;;5.70;;
33844;SDS011;20145;43.118;25.694;2022-07-29T03:17:57;10.32;;;6.22;;
33844;SDS011;20145;43.118;25.694;2022-07-29T03:20:24;6.70;;;5.85;;
33844;SDS011;20145;43.118;25.694;2022-07-29T03:22:50;7.15;;;6.18;;
33844;SDS011;20145;43.118;25.694;2022-07-29T03:25:17;6.75;;;5.80;;
33844;SDS011;20145;43.118;25.694;2022-07-29T03:27:44;6.00;;;5.35;;
33844;SDS011;20145;43.118;25.694;2022-07-29T03:30:10;6.78;;;5.75;;
33844;SDS011;20145;43.118;25.694;2022-07-29T03:32:37;8.95;;;5.95;;
33844;SDS011;20145;43.118;25.694;2022-07-29T03:35:03;7.95;;;5.65;;
33844;SDS011;20145;43.118;25.694;2022-07-29T03:37:31;5.82;;;5.32;;
33844;SDS011;20145;43.118;25.694;2022-07-29T03:39:58;6.22;;;5.60;;
33844;SDS011;20145;43.118;25.694;2022-07-29T03:42:25;6.38;;;5.78;;
33844;SDS011;20145;43.118;25.694;2022-07-29T03:44:55;7.80;;;5.53;;
33844;SDS011;20145;43.118;25.694;2022-07-29T03:47:24;10.40;;;5.93;;
33844;SDS011;20145;43.118;25.694;2022-07-29T03:49:53;7.60;;;5.90;;
33844;SDS011;20145;43.118;25.694;2022-07-29T03:52:24;6.15;;;5.60;;
33844;SDS011;20145;43.118;25.694;2022-07-29T03:54:50;7.20;;;5.75;;
33844;SDS011;20145;43.118;25.694;2022-07-29T03:57:16;9.07;;;5.35;;
33844;SDS011;20145;43.118;25.694;2022-07-29T03:59:45;9.38;;;4.78;;
33844;SDS011;20145;43.118;25.694;2022-07-29T04:02:12;7.05;;;5.35;;
33844;SDS011;20145;43.118;25.694;2022-07-29T04:04:38;7.15;;;5.53;;
33844;SDS011;20145;43.118;25.694;2022-07-29T04:07:04;8.75;;;7.40;;
33844;SDS011;20145;43.118;25.694;2022-07-29T04:09:30;13.40;;;8.63;;
33844;SDS011;20145;43.118;25.694;2022-07-29T04:11:56;8.98;;;8.18;;
33844;SDS011;20145;43.118;25.694;2022-07-29T04:14:21;11.40;;;8.43;;
33844;SDS011;20145;43.118;25.694;2022-07-29T04:16:47;9.52;;;6.93;;
33844;SDS011;20145;43.118;25.694;2022-07-29T04:19:12;9.75;;;8.63;;
33844;SDS011;20145;43.118;25.694;2022-07-29T04:21:41;12.82;;;9.65;;
33844;SDS011;20145;43.118;25.694;2022-07-29T04:24:06;10.73;;;8.95;;
33844;SDS011;20145;43.118;25.694;2022-07-29T04:26:32;11.55;;;10.02;;
33844;SDS011;20145;43.118;25.694;2022-07-29T04:28:58;10.20;;;9.15;;
33844;SDS011;20145;43.118;25.694;2022-07-29T04:31:24;14.88;;;10.20;;
33844;SDS011;20145;43.118;25.694;2022-07-29T04:33:50;11.80;;;8.50;;
33844;SDS011;20145;43.118;25.694;2022-07-29T04:36:16;10.55;;;9.43;;
33844;SDS011;20145;43.118;25.694;2022-07-29T04:38:41;20.25;;;9.30;;
33844;SDS011;20145;43.118;25.694;2022-07-29T04:41:07;12.80;;;8.55;;
33844;SDS011;20145;43.118;25.694;2022-07-29T04:43:34;14.35;;;8.60;;
33844;SDS011;20145;43.118;25.694;2022-07-29T04:46:00;11.48;;;9.50;;
33844;SDS011;20145;43.118;25.694;2022-07-29T04:48:27;12.55;;;10.02;;
33844;SDS011;20145;43.118;25.694;2022-07-29T04:50:52;10.80;;;9.60;;
33844;SDS011;20145;43.118;25.694;2022-07-29T04:53:18;13.07;;;9.63;;
33844;SDS011;20145;43.118;25.694;2022-07-29T04:55:43;12.13;;;9.45;;
33844;SDS011;20145;43.118;25.694;2022-07-29T04:58:10;10.57;;;9.48;;
33844;SDS011;20145;43.118;25.694;2022-07-29T05:00:36;12.98;;;9.10;;
33844;SDS011;20145;43.118;25.694;2022-07-29T05:03:02;9.50;;;8.70;;
33844;SDS011;20145;43.118;25.694;2022-07-29T05:05:28;9.98;;;8.63;;
33844;SDS011;20145;43.118;25.694;2022-07-29T05:07:53;10.95;;;9.68;;
33844;SDS011;20145;43.118;25.694;2022-07-29T05:10:19;12.68;;;9.90;;
33844;SDS011;20145;43.118;25.694;2022-07-29T05:12:45;16.90;;;11.13;;
33844;SDS011;20145;43.118;25.694;2022-07-29T05:15:10;10.30;;;9.30;;
33844;SDS011;20145;43.118;25.694;2022-07-29T05:17:36;11.82;;;9.52;;
33844;SDS011;20145;43.118;25.694;2022-07-29T05:20:02;11.23;;;7.65;;
33844;SDS011;20145;43.118;25.694;2022-07-29T05:22:28;10.63;;;8.30;;
33844;SDS011;20145;43.118;25.694;2022-07-29T05:24:54;8.40;;;7.38;;
33844;SDS011;20145;43.118;25.694;2022-07-29T05:27:19;8.20;;;6.60;;
33844;SDS011;20145;43.118;25.694;2022-07-29T05:29:45;7.55;;;6.82;;
33844;SDS011;20145;43.118;25.694;2022-07-29T05:32:11;7.50;;;6.35;;
33844;SDS011;20145;43.118;25.694;2022-07-29T05:34:37;8.68;;;6.60;;
33844;SDS011;20145;43.118;25.694;2022-07-29T05:37:03;8.55;;;6.68;;
33844;SDS011;20145;43.118;25.694;2022-07-29T05:39:28;10.20;;;7.25;;
33844;SDS011;20145;43.118;25.694;2022-07-29T05:41:54;8.02;;;7.25;;
33844;SDS011;20145;43.118;25.694;2022-07-29T05:44:20;7.60;;;6.97;;
33844;SDS011;20145;43.118;25.694;2022-07-29T05:46:45;7.85;;;7.15;;
33844;SDS011;20145;43.118;25.694;2022-07-29T05:49:11;10.40;;;7.57;;
33844;SDS011;20145;43.118;25.694;2022-07-29T05:51:37;10.38;;;7.15;;
33844;SDS011;20145;43.118;25.694;2022-07-29T05:54:02;7.53;;;6.90;;
33844;SDS011;20145;43.118;25.694;2022-07-29T05:56:28;10.55;;;6.95;;
33844;SDS011;20145;43.118;25.694;2022-07-29T05:58:54;9.95;;;7.70;;
33844;SDS011;20145;43.118;25.694;2022-07-29T06:01:20;14.50;;;7.80;;
33844;SDS011;20145;43.118;25.694;2022-07-29T06:03:45;8.65;;;7.50;;
33844;SDS011;20145;43.118;25.694;2022-07-29T06:06:11;10.65;;;8.57;;
33844;SDS011;20145;43.118;25.694;2022-07-29T06:08:37;12.80;;;8.25;;
33844;SDS011;20145;43.118;25.694;2022-07-29T06:11:04;10.35;;;8.45;;
33844;SDS011;20145;43.118;25.694;2022-07-29T06:13:30;14.13;;;8.88;;
33844;SDS011;20145;43.118;25.694;2022-07-29T06:15:56;8.80;;;7.80;;
33844;SDS011;20145;43.118;25.694;2022-07-29T06:18:21;9.68;;;8.55;;
33844;SDS011;20145;43.118;25.694;2022-07-29T06:20:52;8.73;;;7.88;;
33844;SDS011;20145;43.118;25.694;2022-07-29T06:23:18;8.95;;;8.15;;
33844;SDS011;20145;43.118;25.694;2022-07-29T06:25:45;10.02;;;8.52;;
33844;SDS011;20145;43.118;25.694;2022-07-29T06:28:11;10.38;;;7.85;;
33844;SDS011;20145;43.118;25.694;2022-07-29T06:30:38;14.98;;;8.10;;
33844;SDS011;20145;43.118;25.694;2022-07-29T06:33:04;8.60;;;7.72;;
33844;SDS011;20145;43.118;25.694;2022-07-29T06:35:32;9.05;;;6.63;;
33844;SDS011;20145;43.118;25.694;2022-07-29T06:38:00;7.85;;;6.72;;
33844;SDS011;20145;43.118;25.694;2022-07-29T06:40:26;10.85;;;6.82;;
33844;SDS011;20145;43.118;25.694;2022-07-29T06:43:10;7.68;;;6.68;;
33844;SDS011;20145;43.118;25.694;2022-07-29T06:45:35;6.85;;;6.15;;
33844;SDS011;20145;43.118;25.694;2022-07-29T06:48:01;9.35;;;6.55;;
33844;SDS011;20145;43.118;25.694;2022-07-29T06:50:27;7.22;;;6.18;;
33844;SDS011;20145;43.118;25.694;2022-07-29T06:52:53;7.55;;;5.88;;
33844;SDS011;20145;43.118;25.694;2022-07-29T06:55:18;8.40;;;5.90;;
33844;SDS011;20145;43.118;25.694;2022-07-29T06:57:44;7.03;;;5.65;;
33844;SDS011;20145;43.118;25.694;2022-07-29T07:00:11;7.32;;;5.75;;
33844;SDS011;20145;43.118;25.694;2022-07-29T07:02:37;5.75;;;5.15;;
33844;SDS011;20145;43.118;25.694;2022-07-29T07:05:03;10.35;;;5.68;;
33844;SDS011;20145;43.118;25.694;2022-07-29T07:07:30;5.80;;;5.03;;
33844;SDS011;20145;43.118;25.694;2022-07-29T07:09:56;10.35;;;5.80;;
33844;SDS011;20145;43.118;25.694;2022-07-29T07:12:22;6.80;;;5.97;;
33844;SDS011;20145;43.118;25.694;2022-07-29T07:14:47;7.00;;;5.13;;
33844;SDS011;20145;43.118;25.694;2022-07-29T07:17:13;7.82;;;5.20;;
33844;SDS011;20145;43.118;25.694;2022-07-29T07:19:39;8.20;;;5.78;;
33844;SDS011;20145;43.118;25.694;2022-07-29T07:22:04;7.05;;;5.75;;
33844;SDS011;20145;43.118;25.694;2022-07-29T07:24:31;7.20;;;5.82;;
33844;SDS011;20145;43.118;25.694;2022-07-29T07:26:56;8.55;;;5.43;;
33844;SDS011;20145;43.118;25.694;2022-07-29T07:29:22;7.10;;;5.82;;
33844;SDS011;20145;43.118;25.694;2022-07-29T07:31:48;7.90;;;5.10;;
33844;SDS011;20145;43.118;25.694;2022-07-29T07:34:14;8.57;;;5.07;;
33844;SDS011;20145;43.118;25.694;2022-07-29T07:36:39;9.15;;;4.82;;
33844;SDS011;20145;43.118;25.694;2022-07-29T07:39:05;12.00;;;5.00;;
33844;SDS011;20145;43.118;25.694;2022-07-29T07:41:31;6.10;;;5.00;;
33844;SDS011;20145;43.118;25.694;2022-07-29T07:43:56;6.38;;;4.30;;
33844;SDS011;20145;43.118;25.694;2022-07-29T07:46:22;4.80;;;4.30;;
33844;SDS011;20145;43.118;25.694;2022-07-29T07:48:47;9.63;;;4.43;;
33844;SDS011;20145;43.118;25.694;2022-07-29T07:51:13;6.97;;;4.80;;
33844;SDS011;20145;43.118;25.694;2022-07-29T07:53:38;9.52;;;3.85;;
33844;SDS011;20145;43.118;25.694;2022-07-29T07:56:04;6.97;;;4.45;;
33844;SDS011;20145;43.118;25.694;2022-07-29T07:58:31;3.88;;;3.55;;
33844;SDS011;20145;43.118;25.694;2022-07-29T08:00:57;3.45;;;3.15;;
33844;SDS011;20145;43.118;25.694;2022-07-29T08:03:22;5.38;;;3.05;;
33844;SDS011;20145;43.118;25.694;2022-07-29T08:05:48;3.60;;;3.20;;
33844;SDS011;20145;43.118;25.694;2022-07-29T08:08:16;4.63;;;3.80;;
33844;SDS011;20145;43.118;25.694;2022-07-29T08:10:41;9.20;;;3.47;;
33844;SDS011;20145;43.118;25.694;2022-07-29T08:13:22;7.28;;;3.95;;
33844;SDS011;20145;43.118;25.694;2022-07-29T08:15:50;6.25;;;3.20;;
33844;SDS011;20145;43.118;25.694;2022-07-29T08:18:23;4.75;;;3.17;;
33844;SDS011;20145;43.118;25.694;2022-07-29T08:20:50;6.13;;;3.72;;
33844;SDS011;20145;43.118;25.694;2022-07-29T08:23:15;5.22;;;4.03;;
33844;SDS011;20145;43.118;25.694;2022-07-29T08:25:41;5.53;;;3.75;;
33844;SDS011;20145;43.118;25.694;2022-07-29T08:28:07;7.03;;;3.33;;
33844;SDS011;20145;43.118;25.694;2022-07-29T08:30:34;8.02;;;3.63;;
33844;SDS011;20145;43.118;25.694;2022-07-29T08:32:59;5.43;;;3.47;;
33844;SDS011;20145;43.118;25.694;2022-07-29T08:35:25;4.70;;;3.08;;
33844;SDS011;20145;43.118;25.694;2022-07-29T08:37:51;4.43;;;3.10;;
33844;SDS011;20145;43.118;25.694;2022-07-29T08:40:18;6.05;;;3.10;;
33844;SDS011;20145;43.118;25.694;2022-07-29T08:42:45;4.03;;;2.97;;
33844;SDS011;20145;43.118;25.694;2022-07-29T08:45:11;3.00;;;2.80;;
33844;SDS011;20145;43.118;25.694;2022-07-29T08:47:38;3.58;;;3.20;;
33844;SDS011;20145;43.118;25.694;2022-07-29T08:50:05;5.50;;;3.08;;
33844;SDS011;20145;43.118;25.694;2022-07-29T08:52:41;7.77;;;2.70;;
33844;SDS011;20145;43.118;25.694;2022-07-29T08:55:08;3.33;;;3.03;;
33844;SDS011;20145;43.118;25.694;2022-07-29T08:57:35;5.88;;;3.15;;
33844;SDS011;20145;43.118;25.694;2022-07-29T09:00:04;6.20;;;3.00;;
33844;SDS011;20145;43.118;25.694;2022-07-29T09:02:33;5.20;;;2.60;;
33844;SDS011;20145;43.118;25.694;2022-07-29T09:05:04;2.88;;;2.60;;
33844;SDS011;20145;43.118;25.694;2022-07-29T09:07:30;4.93;;;3.05;;
33844;SDS011;20145;43.118;25.694;2022-07-29T09:09:55;2.70;;;2.50;;
33844;SDS011;20145;43.118;25.694;2022-07-29T09:12:21;4.18;;;2.75;;
33844;SDS011;20145;43.118;25.694;2022-07-29T09:14:50;4.15;;;2.58;;
33844;SDS011;20145;43.118;25.694;2022-07-29T09:17:15;6.30;;;2.63;;
33844;SDS011;20145;43.118;25.694;2022-07-29T09:19:42;9.65;;;3.05;;
33844;SDS011;20145;43.118;25.694;2022-07-29T09:22:08;4.93;;;2.70;;
33844;SDS011;20145;43.118;25.694;2022-07-29T09:24:39;3.80;;;2.72;;
33844;SDS011;20145;43.118;25.694;2022-07-29T09:27:19;2.88;;;2.50;;
33844;SDS011;20145;43.118;25.694;2022-07-29T09:29:47;2.42;;;2.22;;
33844;SDS011;20145;43.118;25.694;2022-07-29T09:32:21;4.13;;;2.45;;
33844;SDS011;20145;43.118;25.694;2022-07-29T09:34:46;4.25;;;2.30;;
33844;SDS011;20145;43.118;25.694;2022-07-29T09:37:12;2.95;;;2.20;;
33844;SDS011;20145;43.118;25.694;2022-07-29T09:39:51;2.90;;;2.42;;
33844;SDS011;20145;43.118;25.694;2022-07-29T09:42:27;2.83;;;2.63;;
33844;SDS011;20145;43.118;25.694;2022-07-29T09:44:53;6.13;;;3.10;;
33844;SDS011;20145;43.118;25.694;2022-07-29T09:47:19;4.32;;;3.17;;
33844;SDS011;20145;43.118;25.694;2022-07-29T09:52:18;4.63;;;2.88;;
33844;SDS011;20145;43.118;25.694;2022-07-29T09:54:44;3.33;;;3.03;;
33844;SDS011;20145;43.118;25.694;2022-07-29T09:57:21;2.95;;;2.75;;
33844;SDS011;20145;43.118;25.694;2022-07-29T09:59:58;5.50;;;2.70;;
33844;SDS011;20145;43.118;25.694;2022-07-29T10:02:34;3.15;;;2.38;;
33844;SDS011;20145;43.118;25.694;2022-07-29T10:05:01;4.13;;;3.00;;
33844;SDS011;20145;43.118;25.694;2022-07-29T10:10:19;3.83;;;2.60;;
33844;SDS011;20145;43.118;25.694;2022-07-29T10:13:00;7.82;;;3.25;;
33844;SDS011;20145;43.118;25.694;2022-07-29T10:15:29;6.10;;;3.08;;
33844;SDS011;20145;43.118;25.694;2022-07-29T10:17:57;2.78;;;2.58;;
33844;SDS011;20145;43.118;25.694;2022-07-29T10:20:23;3.97;;;2.70;;
33844;SDS011;20145;43.118;25.694;2022-07-29T10:22:50;4.88;;;2.72;;
33844;SDS011;20145;43.118;25.694;2022-07-29T10:25:17;2.88;;;2.63;;
33844;SDS011;20145;43.118;25.694;2022-07-29T10:27:43;4.90;;;2.80;;
33844;SDS011;20145;43.118;25.694;2022-07-29T10:30:09;4.18;;;2.72;;
33844;SDS011;20145;43.118;25.694;2022-07-29T10:35:13;2.60;;;2.40;;
33844;SDS011;20145;43.118;25.694;2022-07-29T10:38:04;2.50;;;2.30;;
33844;SDS011;20145;43.118;25.694;2022-07-29T10:44:14;3.63;;;3.30;;
33844;SDS011;20145;43.118;25.694;2022-07-29T10:46:41;3.42;;;2.78;;
33844;SDS011;20145;43.118;25.694;2022-07-29T10:49:14;7.43;;;2.83;;
33844;SDS011;20145;43.118;25.694;2022-07-29T10:54:17;3.20;;;2.42;;
33844;SDS011;20145;43.118;25.694;2022-07-29T10:56:43;3.95;;;2.53;;
33844;SDS011;20145;43.118;25.694;2022-07-29T11:01:48;2.30;;;2.10;;
33844;SDS011;20145;43.118;25.694;2022-07-29T11:04:15;3.63;;;2.55;;
33844;SDS011;20145;43.118;25.694;2022-07-29T11:07:10;4.22;;;3.15;;
33844;SDS011;20145;43.118;25.694;2022-07-29T11:09:37;3.22;;;2.40;;
33844;SDS011;20145;43.118;25.694;2022-07-29T11:12:04;4.93;;;2.30;;
33844;SDS011;20145;43.118;25.694;2022-07-29T11:15:01;5.70;;;2.75;;
33844;SDS011;20145;43.118;25.694;2022-07-29T11:17:27;3.58;;;2.72;;
33844;SDS011;20145;43.118;25.694;2022-07-29T11:22:58;5.10;;;2.78;;
33844;SDS011;20145;43.118;25.694;2022-07-29T11:25:24;4.03;;;2.50;;
33844;SDS011;20145;43.118;25.694;2022-07-29T11:27:51;3.45;;;2.63;;
33844;SDS011;20145;43.118;25.694;2022-07-29T11:30:19;5.63;;;2.42;;
33844;SDS011;20145;43.118;25.694;2022-07-29T11:32:45;4.35;;;2.80;;
33844;SDS011;20145;43.118;25.694;2022-07-29T11:35:21;3.40;;;2.85;;
33844;SDS011;20145;43.118;25.694;2022-07-29T11:38:34;6.40;;;2.75;;
33844;SDS011;20145;43.118;25.694;2022-07-29T11:49:34;2.67;;;2.47;;
33844;SDS011;20145;43.118;25.694;2022-07-29T11:51:59;3.53;;;2.67;;
33844;SDS011;20145;43.118;25.694;2022-07-29T11:54:31;5.20;;;2.75;;
33844;SDS011;20145;43.118;25.694;2022-07-29T11:56:59;6.35;;;2.67;;
33844;SDS011;20145;43.118;25.694;2022-07-29T11:59:25;7.82;;;2.72;;
33844;SDS011;20145;43.118;25.694;2022-07-29T12:01:58;4.63;;;2.50;;
33844;SDS011;20145;43.118;25.694;2022-07-29T12:04:24;3.00;;;2.25;;
33844;SDS011;20145;43.118;25.694;2022-07-29T12:06:55;3.15;;;2.72;;
33844;SDS011;20145;43.118;25.694;2022-07-29T12:09:21;4.63;;;2.67;;
33844;SDS011;20145;43.118;25.694;2022-07-29T12:11:57;3.50;;;2.65;;
33844;SDS011;20145;43.118;25.694;2022-07-29T12:14:26;3.80;;;2.65;;
33844;SDS011;20145;43.118;25.694;2022-07-29T12:16:56;4.20;;;2.83;;
33844;SDS011;20145;43.118;25.694;2022-07-29T12:19:22;5.47;;;3.05;;
33844;SDS011;20145;43.118;25.694;2022-07-29T12:21:48;2.88;;;2.55;;
33844;SDS011;20145;43.118;25.694;2022-07-29T12:24:16;4.00;;;2.80;;
33844;SDS011;20145;43.118;25.694;2022-07-29T12:26:52;4.25;;;2.65;;
33844;SDS011;20145;43.118;25.694;2022-07-29T12:29:23;4.20;;;2.92;;
33844;SDS011;20145;43.118;25.694;2022-07-29T12:31:53;4.10;;;2.50;;
33844;SDS011;20145;43.118;25.694;2022-07-29T12:34:20;6.47;;;2.90;;
33844;SDS011;20145;43.118;25.694;2022-07-29T12:36:48;4.43;;;2.60;;
33844;SDS011;20145;43.118;25.694;2022-07-29T12:39:17;3.65;;;2.50;;
33844;SDS011;20145;43.118;25.694;2022-07-29T12:41:44;2.80;;;2.60;;
33844;SDS011;20145;43.118;25.694;2022-07-29T12:44:10;3.10;;;2.80;;
33844;SDS011;20145;43.118;25.694;2022-07-29T12:46:36;6.38;;;3.35;;
33844;SDS011;20145;43.118;25.694;2022-07-29T12:49:02;5.88;;;3.10;;
33844;SDS011;20145;43.118;25.694;2022-07-29T12:51:29;4.45;;;2.60;;
33844;SDS011;20145;43.118;25.694;2022-07-29T12:54:09;2.75;;;2.53;;
33844;SDS011;20145;43.118;25.694;2022-07-29T12:56:39;3.15;;;2.58;;
33844;SDS011;20145;43.118;25.694;2022-07-29T12:59:19;3.40;;;2.50;;
33844;SDS011;20145;43.118;25.694;2022-07-29T13:01:47;6.75;;;3.00;;
33844;SDS011;20145;43.118;25.694;2022-07-29T13:04:25;3.15;;;2.30;;
33844;SDS011;20145;43.118;25.694;2022-07-29T13:06:57;5.55;;;2.50;;
33844;SDS011;20145;43.118;25.694;2022-07-29T13:09:35;2.60;;;2.40;;
33844;SDS011;20145;43.118;25.694;2022-07-29T13:12:05;3.50;;;2.30;;
33844;SDS011;20145;43.118;25.694;2022-07-29T13:14:35;2.63;;;2.42;;
33844;SDS011;20145;43.118;25.694;2022-07-29T13:17:14;3.42;;;2.60;;
33844;SDS011;20145;43.118;25.694;2022-07-29T13:22:29;3.90;;;2.55;;
33844;SDS011;20145;43.118;25.694;2022-07-29T13:24:55;6.32;;;2.92;;
33844;SDS011;20145;43.118;25.694;2022-07-29T13:27:26;3.22;;;2.47;;
33844;SDS011;20145;43.118;25.694;2022-07-29T13:29:53;7.72;;;2.78;;
33844;SDS011;20145;43.118;25.694;2022-07-29T13:32:21;5.28;;;2.20;;
33844;SDS011;20145;43.118;25.694;2022-07-29T13:34:48;9.15;;;8.25;;
33844;SDS011;20145;43.118;25.694;2022-07-29T13:37:14;4.75;;;4.30;;
33844;SDS011;20145;43.118;25.694;2022-07-29T13:39:40;6.25;;;4.05;;
33844;SDS011;20145;43.118;25.694;2022-07-29T13:42:06;8.30;;;2.80;;
33844;SDS011;20145;43.118;25.694;2022-07-29T13:44:32;5.07;;;3.70;;
33844;SDS011;20145;43.118;25.694;2022-07-29T13:46:58;5.28;;;2.63;;
33844;SDS011;20145;43.118;25.694;2022-07-29T13:49:24;6.93;;;2.72;;
33844;SDS011;20145;43.118;25.694;2022-07-29T13:51:50;3.97;;;3.00;;
33844;SDS011;20145;43.118;25.694;2022-07-29T13:54:16;3.88;;;2.80;;
33844;SDS011;20145;43.118;25.694;2022-07-29T13:56:41;5.50;;;3.17;;
33844;SDS011;20145;43.118;25.694;2022-07-29T13:59:07;2.80;;;2.50;;
33844;SDS011;20145;43.118;25.694;2022-07-29T14:01:34;4.47;;;3.00;;
33844;SDS011;20145;43.118;25.694;2022-07-29T14:04:00;3.08;;;2.50;;
33844;SDS011;20145;43.118;25.694;2022-07-29T14:06:25;5.13;;;2.75;;
33844;SDS011;20145;43.118;25.694;2022-07-29T14:08:51;7.78;;;3.17;;
33844;SDS011;20145;43.118;25.694;2022-07-29T14:11:16;4.18;;;2.30;;
33844;SDS011;20145;43.118;25.694;2022-07-29T14:13:42;6.03;;;2.90;;
33844;SDS011;20145;43.118;25.694;2022-07-29T14:16:08;7.10;;;2.95;;
33844;SDS011;20145;43.118;25.694;2022-07-29T14:18:34;5.55;;;2.50;;
33844;SDS011;20145;43.118;25.694;2022-07-29T14:20:59;9.25;;;3.55;;
33844;SDS011;20145;43.118;25.694;2022-07-29T14:23:25;5.47;;;2.80;;
33844;SDS011;20145;43.118;25.694;2022-07-29T14:25:51;4.05;;;2.72;;
33844;SDS011;20145;43.118;25.694;2022-07-29T14:28:17;6.25;;;2.90;;
33844;SDS011;20145;43.118;25.694;2022-07-29T14:30:42;3.33;;;2.92;;
33844;SDS011;20145;43.118;25.694;2022-07-29T14:33:08;3.33;;;2.50;;
33844;SDS011;20145;43.118;25.694;2022-07-29T14:35:34;3.67;;;2.83;;
33844;SDS011;20145;43.118;25.694;2022-07-29T14:37:59;3.05;;;2.28;;
33844;SDS011;20145;43.118;25.694;2022-07-29T14:40:25;8.45;;;3.03;;
33844;SDS011;20145;43.118;25.694;2022-07-29T14:42:53;11.95;;;3.55;;
33844;SDS011;20145;43.118;25.694;2022-07-29T14:45:19;3.20;;;2.60;;
33844;SDS011;20145;43.118;25.694;2022-07-29T14:47:44;6.30;;;2.90;;
33844;SDS011;20145;43.118;25.694;2022-07-29T14:50:10;2.90;;;2.67;;
33844;SDS011;20145;43.118;25.694;2022-07-29T14:52:37;3.25;;;2.95;;
33844;SDS011;20145;43.118;25.694;2022-07-29T14:55:03;5.05;;;2.70;;
33844;SDS011;20145;43.118;25.694;2022-07-29T14:57:29;5.15;;;2.85;;
33844;SDS011;20145;43.118;25.694;2022-07-29T14:59:55;7.72;;;4.20;;
33844;SDS011;20145;43.118;25.694;2022-07-29T15:02:21;4.53;;;3.28;;
33844;SDS011;20145;43.118;25.694;2022-07-29T15:04:46;6.13;;;4.68;;
33844;SDS011;20145;43.118;25.694;2022-07-29T15:07:14;6.30;;;4.13;;
33844;SDS011;20145;43.118;25.694;2022-07-29T15:09:40;6.25;;;2.75;;
33844;SDS011;20145;43.118;25.694;2022-07-29T15:12:06;3.83;;;3.30;;
33844;SDS011;20145;43.118;25.694;2022-07-29T15:14:33;8.48;;;3.78;;
33844;SDS011;20145;43.118;25.694;2022-07-29T15:16:58;4.72;;;2.30;;
33844;SDS011;20145;43.118;25.694;2022-07-29T15:19:24;3.30;;;2.90;;
33844;SDS011;20145;43.118;25.694;2022-07-29T15:21:50;4.03;;;2.50;;
33844;SDS011;20145;43.118;25.694;2022-07-29T15:24:16;2.92;;;2.63;;